Columbus, OH

12:25 AM EDT on August 31, 2014 (GMT -0400)
WX8Q Worthington Estates East | Change Station
CLOSE
Current Station
Personal Weather Station
Location: Worthington, OH
Elevation: 922 ft
Nearby Weather Stations

Elev 922 ft 40.10 °N, 83.01 °W | Updated 31 seconds ago

Overcast
Overcast
75.7 °F
Feels Like 77 °F
N
0.7
Wind Variable Wind from NW
Gusts 1.6 mph

Today
High -- | Low -- °F
--% Chance of Precip.
Yesterday
High -- | Low -- °F
Precip. -- in
6:58 AM 8:05 PM
Waxing Crescent, 27% visible
Pressure 30.01 in
Visibility 10.0 miles
Clouds Overcast 7500 ft
Heat Index 77 °F
Dew Point 69 °F
Humidity 79%
Rainfall 0.00 in
Snow Depth Not available.
UV 0.0 out of 12
Pollen 11.10 out of 12
Ozone Good
PM2.5 Moderate
Flu Activity Not available.
METAR KOSU 310353Z AUTO 23010KT 10SM OVC075 24/19 A3004 RMK AO2 RAE03B37E48 SLP162 P0000 T02390194

More Conditions Fewer Conditions

Pressure 30.01 in
Visibility 10.0 miles
Clouds Overcast 7500 ft
Heat Index 77 °F
Dew Point 69 °F
Humidity 79%
Rainfall 0.00 in
Snow Depth Not available.
UV 0.0 out of 12
Pollen 11.10 out of 12
Ozone Good
PM2.5 Moderate
Flu Activity Not available.
METAR KOSU 310353Z AUTO 23010KT 10SM OVC075 24/19 A3004 RMK AO2 RAE03B37E48 SLP162 P0000 T02390194

More Conditions Fewer Conditions

10-Day Weather Forecast

Almanac

Astronomy

Aug. 31, 2014 Rise Set
Actual Time 6:58 AM EDT 8:05 PM EDT
Civil Twilight 6:30 AM EDT 8:33 PM EDT
Nautical Twilight 5:57 AM EDT 9:06 PM EDT
Astronomical Twilight 5:22 AM EDT 9:40 PM EDT
Moon 12:44 PM EDT 11:19 PM EDT
Length of Visible Light 14h 02m
Length of Day
13h 06m
Tomorrow will be 2m 31s shorter.
Waxing Crescent, 27% of the Moon is Illuminated
Today
Waxing Crescent
Sep 2
First Quarter
Sep 8
Full
Sep 15
Last Quarter
Sep 24
New

Yesterday's Extremes

State Highs State Lows

Community

WunderPhotos

Upload Photos

1,748,776 photos uploaded!

Nearby

Air Quality

  Air Quality AQ Index Pollutant
Yesterday Moderate
OZONE
Yesterday Good
PM2.5
Current Moderate
PM2.5
Current Good
OZONE
Saturday Moderate
OZONE
Saturday Moderate
PM2.5
Sunday Good
OZONE
Sunday Good
PM2.5
Monday Good
PM2.5
Monday Good
OZONE
Tuesday Good
OZONE
Tuesday Good
PM2.5
Wednesday Moderate
PM2.5
Wednesday Moderate
OZONE
Thursday Moderate
OZONE
Thursday Moderate
PM2.5

Snow Depth

Station Depth Elevation
No new snow has been reported.

Earthquake Activity

City Distance Mag. Time & Date
No recent earthquake activity has been reported nearby.
Minimum magnitude displayed is 2.5.

Coastal Water Temperatures

Place Temperature
No Stations Reporting

Nearby Weather Stations